Time;durP1;ratioP1;P1;durP2;ratioP2;P2;SDS_P1;SDS_P2;PMS_P1;PMS_P2;Temp;Humidity;BMP_temperature;BMP_pressure;BME280_temperature;BME280_humidity;BME280_pressure;Samples;Min_cycle;Max_cycle;Signal;HPM_P1;HPM_P2
2021/06/15 00:02:20;;;;;;;12.88;7.95;;;;;;;15.43;66.05;100722.28;125442;1092;103188;-81
2021/06/15 00:04:47;;;;;;;11.75;7.80;;;;;;;15.41;65.97;100726.83;125437;1092;101833;-81
2021/06/15 00:07:15;;;;;;;12.27;8.80;;;;;;;15.33;66.17;100717.30;125054;1092;116289;-82
2021/06/15 00:09:42;;;;;;;11.65;8.13;;;;;;;15.29;66.44;100712.13;125196;1093;103202;-82
2021/06/15 00:12:10;;;;;;;11.68;8.05;;;;;;;15.24;66.59;100708.77;125386;1093;116080;-81
2021/06/15 00:14:38;;;;;;;10.25;7.20;;;;;;;15.20;66.70;100714.23;125889;1093;103425;-83
2021/06/15 00:17:06;;;;;;;13.28;8.08;;;;;;;15.18;66.10;100713.44;125969;1093;103134;-84
2021/06/15 00:19:34;;;;;;;8.58;7.45;;;;;;;15.17;66.40;100711.69;124846;1093;115238;-82
2021/06/15 00:22:02;;;;;;;12.10;7.80;;;;;;;15.18;66.58;100718.80;125456;1092;103671;-82
2021/06/15 00:24:29;;;;;;;13.68;8.43;;;;;;;15.14;66.83;100705.56;125707;1093;116107;-83
2021/06/15 00:26:57;;;;;;;9.90;7.90;;;;;;;15.08;67.22;100712.05;125602;1093;103169;-83
2021/06/15 00:29:25;;;;;;;9.13;8.10;;;;;;;15.04;67.11;100708.61;125580;1093;102987;-83
2021/06/15 00:31:52;;;;;;;9.90;7.67;;;;;;;15.02;67.09;100706.92;125842;1092;114480;-83
2021/06/15 00:34:20;;;;;;;10.35;7.80;;;;;;;14.98;67.09;100703.52;125466;1092;103099;-82
2021/06/15 00:36:47;;;;;;;8.07;6.50;;;;;;;14.96;67.35;100696.46;125522;1093;115281;-81
2021/06/15 00:39:15;;;;;;;13.00;8.95;;;;;;;14.97;67.47;100704.44;125551;1093;103071;-83
2021/06/15 00:41:42;;;;;;;7.38;6.65;;;;;;;14.96;67.23;100705.37;125294;1093;114870;-83
2021/06/15 00:44:11;;;;;;;11.00;7.77;;;;;;;14.97;66.89;100715.17;125042;1093;103118;-82
2021/06/15 00:46:40;;;;;;;13.05;8.05;;;;;;;14.99;67.17;100709.73;125327;1093;103048;-82
2021/06/15 00:49:08;;;;;;;8.70;7.33;;;;;;;14.91;67.24;100704.67;125144;1093;115531;-82
2021/06/15 00:51:49;;;;;;;9.90;7.80;;;;;;;14.86;67.58;100712.91;125234;1093;103009;-82
2021/06/15 00:54:16;;;;;;;10.73;7.95;;;;;;;14.81;67.43;100705.99;125285;1093;116443;-83
2021/06/15 00:56:44;;;;;;;8.30;7.47;;;;;;;14.75;67.58;100708.90;125273;1093;103222;-82
2021/06/15 00:59:12;;;;;;;12.08;7.78;;;;;;;14.73;67.96;100711.64;125637;1093;102945;-83
2021/06/15 01:01:39;;;;;;;12.80;9.17;;;;;;;14.70;67.82;100706.38;125103;1092;116235;-83
2021/06/15 01:04:07;;;;;;;9.70;8.40;;;;;;;14.66;68.29;100708.33;125186;1093;103639;-82
2021/06/15 01:06:42;;;;;;;13.40;7.87;;;;;;;14.69;67.94;100701.98;125076;1093;114676;-82
2021/06/15 01:09:48;;;;;;;12.20;7.43;;;;;;;14.61;68.14;100695.97;125448;1093;102937;-81
2021/06/15 01:12:35;;;;;;;10.18;8.85;;;;;;;14.57;68.20;100694.34;124844;1093;115025;-81
2021/06/15 01:15:32;;;;;;;9.33;8.07;;;;;;;14.56;68.21;100690.80;125520;1093;103160;-81
2021/06/15 01:18:09;;;;;;;12.65;9.10;;;;;;;14.57;68.33;100691.67;125095;1093;115346;-83
2021/06/15 01:20:42;;;;;;;11.00;7.63;;;;;;;14.51;68.00;100682.95;125629;1093;103597;-82
2021/06/15 01:23:47;;;;;;;9.30;7.67;;;;;;;14.49;68.18;100689.30;125535;1093;102997;-82
2021/06/15 01:26:49;;;;;;;11.87;8.30;;;;;;;14.43;68.31;100687.70;125358;1093;114843;-81
2021/06/15 01:29:26;;;;;;;12.28;9.45;;;;;;;14.48;68.22;100683.05;125443;1092;102986;-82
2021/06/15 01:31:58;;;;;;;13.30;8.10;;;;;;;14.49;68.50;100687.48;125835;1093;114494;-83
2021/06/15 01:34:28;;;;;;;11.93;9.10;;;;;;;14.44;68.45;100680.56;125623;1093;103076;-81
2021/06/15 01:37:21;;;;;;;12.63;8.65;;;;;;;14.43;68.69;100684.17;125355;1093;116476;-82
2021/06/15 01:39:59;;;;;;;9.57;8.13;;;;;;;14.35;68.73;100681.77;125483;1093;102980;-83
2021/06/15 01:43:03;;;;;;;9.47;7.97;;;;;;;14.35;68.84;100679.98;124996;1093;115733;-83
2021/06/15 01:45:47;;;;;;;11.30;7.75;;;;;;;14.44;68.50;100683.24;124782;1096;102087;-81
2021/06/15 01:48:34;;;;;;;9.20;8.33;;;;;;;14.36;68.06;100686.20;125197;1096;114932;-81
2021/06/15 01:51:04;;;;;;;8.65;7.58;;;;;;;14.25;68.85;100691.97;124890;1093;103019;-83
2021/06/15 01:53:34;;;;;;;10.70;7.47;;;;;;;14.20;69.04;100692.12;125122;1093;103154;-83
2021/06/15 01:56:04;;;;;;;10.85;8.48;;;;;;;14.23;68.75;100687.59;125315;1092;116307;-83
2021/06/15 01:58:36;;;;;;;10.70;8.30;;;;;;;14.23;68.50;100695.63;125005;1093;103082;-83
2021/06/15 02:01:06;;;;;;;11.40;8.33;;;;;;;14.25;68.53;100704.47;124921;1093;114903;-82
2021/06/15 02:03:34;;;;;;;9.83;8.83;;;;;;;14.21;68.93;100701.05;125175;1093;103013;-82
2021/06/15 02:06:03;;;;;;;7.68;6.80;;;;;;;14.18;68.96;100707.39;125120;1093;114823;-80
2021/06/15 02:08:40;;;;;;;10.60;7.27;;;;;;;14.20;68.95;100708.19;125259;1092;102994;-82
2021/06/15 02:11:08;;;;;;;9.57;7.33;;;;;;;14.16;69.21;100719.95;125224;1093;103073;-81
2021/06/15 02:13:42;;;;;;;9.90;8.70;;;;;;;14.08;69.10;100714.00;124986;1093;114411;-82
2021/06/15 02:16:10;;;;;;;8.43;7.18;;;;;;;14.06;69.13;100707.81;125979;1092;103114;-83
2021/06/15 02:18:41;;;;;;;8.95;8.05;;;;;;;14.04;68.97;100707.01;125141;1093;115036;-86
2021/06/15 02:21:10;;;;;;;11.27;8.30;;;;;;;14.03;69.17;100702.58;125139;1093;102929;-83
2021/06/15 02:23:39;;;;;;;9.45;7.68;;;;;;;13.92;69.48;100697.61;125621;1093;103023;-83
2021/06/15 02:26:22;;;;;;;8.87;7.97;;;;;;;13.86;69.57;100701.38;125131;1092;115013;-83
2021/06/15 02:28:49;;;;;;;9.08;7.63;;;;;;;13.85;69.59;100712.16;125245;1093;102894;-84
2021/06/15 02:31:25;;;;;;;9.60;8.17;;;;;;;13.95;69.84;100710.88;125111;1093;116363;-83
2021/06/15 02:33:55;;;;;;;8.50;7.63;;;;;;;13.97;69.61;100703.67;125138;1093;103208;-84
2021/06/15 02:36:29;;;;;;;9.55;8.15;;;;;;;13.94;69.60;100700.22;125130;1093;115140;-81
2021/06/15 02:39:01;;;;;;;11.17;7.83;;;;;;;13.93;69.86;100698.47;125165;1093;102987;-82
2021/06/15 02:41:31;;;;;;;8.85;7.85;;;;;;;13.95;69.29;100700.16;125288;1093;103036;-81
2021/06/15 02:44:01;;;;;;;9.13;8.00;;;;;;;14.01;69.48;100705.31;125097;1093;114787;-83
2021/06/15 02:46:33;;;;;;;9.20;8.30;;;;;;;14.04;69.42;100705.19;125457;1093;103013;-83
2021/06/15 02:49:08;;;;;;;10.63;8.57;;;;;;;14.07;69.17;100698.86;125216;1092;114847;-82
2021/06/15 02:52:21;;;;;;;10.23;8.20;;;;;;;14.11;69.49;100697.81;125417;1092;104000;-83
2021/06/15 02:55:13;;;;;;;9.25;7.65;;;;;;;14.16;69.41;100709.23;125232;1093;114826;-83
2021/06/15 02:57:41;;;;;;;10.57;8.60;;;;;;;14.23;68.93;100704.53;125278;1092;103097;-80
2021/06/15 03:00:11;;;;;;;8.40;7.45;;;;;;;14.31;69.18;100712.29;125123;1093;114182;-83
2021/06/15 03:02:39;;;;;;;8.73;7.85;;;;;;;14.30;69.42;100710.53;125369;1093;103423;-82
2021/06/15 03:05:14;;;;;;;9.57;7.70;;;;;;;14.27;69.71;100708.84;125165;1092;103040;-83
2021/06/15 03:07:46;;;;;;;10.15;7.70;;;;;;;14.21;69.52;100715.30;125364;1093;114471;-82
2021/06/15 03:10:14;;;;;;;11.80;8.80;;;;;;;14.18;69.95;100715.42;125347;1092;103028;-82
2021/06/15 03:13:01;;;;;;;10.33;7.58;;;;;;;14.23;69.63;100715.24;125196;1092;115068;-82
2021/06/15 03:15:49;;;;;;;7.70;7.00;;;;;;;14.31;70.08;100717.65;125301;1092;102978;-82
2021/06/15 03:18:31;;;;;;;9.10;7.07;;;;;;;14.30;70.23;100707.85;125345;1093;114297;-83
2021/06/15 03:21:02;;;;;;;10.70;8.63;;;;;;;14.31;70.25;100707.80;125165;1093;102918;-82
2021/06/15 03:23:45;;;;;;;7.60;6.80;;;;;;;14.40;70.25;100711.09;125103;1093;103127;-83
2021/06/15 03:26:20;;;;;;;7.68;6.88;;;;;;;14.47;69.97;100716.13;125283;1093;114376;-83
2021/06/15 03:28:55;;;;;;;11.05;7.00;;;;;;;14.50;70.26;100718.72;125586;1092;102998;-83
2021/06/15 03:31:24;;;;;;;8.60;7.10;;;;;;;14.53;70.12;100709.70;125042;1093;115170;-82
2021/06/15 03:33:54;;;;;;;12.60;7.70;;;;;;;14.61;70.31;100712.95;125317;1093;103174;-81
2021/06/15 03:36:24;;;;;;;8.50;7.10;;;;;;;14.69;69.67;100724.28;125010;1093;114956;-82
2021/06/15 03:38:57;;;;;;;8.80;7.70;;;;;;;14.72;69.86;100725.98;125390;1093;102914;-83
2021/06/15 03:41:25;;;;;;;11.57;7.57;;;;;;;14.77;69.60;100715.95;125442;1093;102903;-83
2021/06/15 03:43:59;;;;;;;12.43;7.40;;;;;;;14.85;69.14;100721.02;125256;1093;114606;-82
2021/06/15 03:46:27;;;;;;;17.33;8.25;;;;;;;14.92;68.27;100716.30;125806;1093;103023;-83
2021/06/15 03:48:57;;;;;;;7.73;6.90;;;;;;;14.99;68.46;100717.78;124886;1092;114352;-81
2021/06/15 03:51:28;;;;;;;10.20;7.85;;;;;;;15.03;68.51;100727.45;124564;1093;103045;-81
2021/06/15 03:54:06;;;;;;;10.08;7.78;;;;;;;15.03;68.21;100731.03;125043;1093;102943;-82
2021/06/15 03:56:55;;;;;;;13.83;8.73;;;;;;;15.15;65.85;100724.27;125003;1093;114508;-85
2021/06/15 03:59:28;;;;;;;11.43;7.95;;;;;;;15.30;65.82;100725.48;125425;1093;103081;-81
2021/06/15 04:02:10;;;;;;;12.17;8.27;;;;;;;15.42;64.65;100724.11;124852;1095;114656;-82
2021/06/15 04:04:41;;;;;;;14.33;7.88;;;;;;;15.48;64.79;100725.66;125381;1096;103111;-81
2021/06/15 04:07:14;;;;;;;11.90;8.55;;;;;;;15.49;64.38;100716.67;125297;1096;114965;-82
2021/06/15 04:09:42;;;;;;;11.30;8.47;;;;;;;15.55;64.16;100719.08;124965;1096;103007;-80
2021/06/15 04:12:11;;;;;;;11.73;8.35;;;;;;;15.66;62.53;100715.94;124672;1096;103183;-82
2021/06/15 04:14:39;;;;;;;12.00;8.70;;;;;;;15.75;62.93;100723.61;124665;1095;115498;-81
2021/06/15 04:17:19;;;;;;;12.67;7.67;;;;;;;15.79;62.01;100722.53;125173;1096;103221;-82
2021/06/15 04:19:49;;;;;;;10.07;7.90;;;;;;;15.84;61.95;100723.25;125019;1094;115070;-83
2021/06/15 04:22:34;;;;;;;11.65;7.05;;;;;;;15.88;61.29;100724.00;125174;1096;103071;-83
2021/06/15 04:25:06;;;;;;;13.13;8.25;;;;;;;15.94;61.12;100720.16;124942;1096;115453;-82
2021/06/15 04:27:34;;;;;;;11.33;8.50;;;;;;;15.96;60.30;100720.98;125082;1096;102995;-85
2021/06/15 04:30:19;;;;;;;10.77;8.23;;;;;;;16.01;60.35;100718.97;125053;1096;114930;-83
2021/06/15 04:32:55;;;;;;;11.68;8.48;;;;;;;16.07;60.16;100721.37;125120;1095;103153;-83
2021/06/15 04:35:33;;;;;;;10.00;8.67;;;;;;;16.10;59.58;100721.25;125092;1094;103189;-84
2021/06/15 04:38:03;;;;;;;12.93;9.23;;;;;;;16.16;59.77;100726.34;125052;1096;114760;-81
2021/06/15 04:40:40;;;;;;;15.45;9.55;;;;;;;16.21;60.06;100715.40;125298;1093;103354;-83
2021/06/15 04:43:29;;;;;;;15.73;7.67;;;;;;;16.32;59.61;100721.14;125141;1093;114982;-83
2021/06/15 04:46:24;;;;;;;11.43;8.45;;;;;;;16.43;59.31;100717.11;124805;1093;103447;-81
2021/06/15 04:49:16;;;;;;;12.53;8.30;;;;;;;16.55;59.10;100730.88;124943;1092;115166;-83
2021/06/15 04:51:46;;;;;;;13.50;8.95;;;;;;;16.65;58.71;100725.92;125569;1093;102945;-83
2021/06/15 04:54:14;;;;;;;13.67;9.40;;;;;;;16.74;58.55;100724.64;125430;1093;103797;-83
2021/06/15 04:56:43;;;;;;;14.90;8.47;;;;;;;16.82;57.99;100726.94;125062;1093;114539;-82
2021/06/15 04:59:11;;;;;;;11.87;8.47;;;;;;;16.85;57.25;100719.61;125070;1092;103103;-82
2021/06/15 05:01:42;;;;;;;11.73;8.40;;;;;;;16.93;57.01;100721.08;125078;1093;114591;-81
2021/06/15 05:04:10;;;;;;;9.87;8.60;;;;;;;16.98;56.81;100725.32;125105;1093;103010;-85
2021/06/15 05:06:40;;;;;;;13.80;10.17;;;;;;;17.07;56.94;100732.06;125078;1093;115163;-80
2021/06/15 05:09:08;;;;;;;12.28;9.10;;;;;;;17.14;57.78;100733.53;125067;1093;103186;-83
2021/06/15 05:11:37;;;;;;;11.63;7.90;;;;;;;17.19;57.46;100735.98;125230;1091;103000;-82
2021/06/15 05:14:07;;;;;;;12.00;9.80;;;;;;;17.19;56.94;100739.56;125131;1093;115229;-83
2021/06/15 05:16:37;;;;;;;16.40;9.00;;;;;;;17.21;56.94;100744.87;125156;1092;102953;-82
2021/06/15 05:19:05;;;;;;;12.98;9.00;;;;;;;17.26;56.90;100741.94;125391;1092;115512;-82
2021/06/15 05:21:52;;;;;;;14.40;9.93;;;;;;;17.30;56.41;100741.73;125150;1093;103105;-81
2021/06/15 05:24:50;;;;;;;16.83;9.60;;;;;;;17.37;56.81;100744.99;125179;1093;114783;-82
2021/06/15 05:27:19;;;;;;;11.25;8.93;;;;;;;17.38;55.72;100752.13;125134;1093;103004;-83
2021/06/15 05:29:47;;;;;;;11.93;8.53;;;;;;;17.38;55.79;100747.61;125326;1093;103032;-82
2021/06/15 05:32:14;;;;;;;13.23;9.60;;;;;;;17.43;56.21;100746.50;125104;1093;114823;-83
2021/06/15 05:34:55;;;;;;;14.50;8.47;;;;;;;17.51;56.19;100746.98;125344;1096;103185;-82
2021/06/15 05:37:23;;;;;;;11.43;9.20;;;;;;;17.59;55.82;100755.55;124498;1096;114943;-80
2021/06/15 05:39:51;;;;;;;13.50;10.37;;;;;;;17.66;55.27;100756.11;125059;1095;103057;-81
2021/06/15 05:42:32;;;;;;;15.50;9.30;;;;;;;17.74;55.00;100755.73;124832;1096;116591;-84
2021/06/15 05:44:59;;;;;;;18.07;9.30;;;;;;;17.81;54.57;100755.34;125273;1095;103065;-82
2021/06/15 05:47:29;;;;;;;15.25;9.30;;;;;;;17.88;55.39;100750.52;125196;1095;103185;-82
2021/06/15 05:49:57;;;;;;;17.07;10.43;;;;;;;17.95;54.56;100745.72;125097;1095;114839;-82
2021/06/15 05:52:25;;;;;;;11.80;10.15;;;;;;;18.02;54.71;100745.33;125190;1095;103080;-83
2021/06/15 05:54:52;;;;;;;12.70;8.13;;;;;;;18.12;54.69;100743.02;125045;1095;115354;-81
2021/06/15 05:57:19;;;;;;;17.15;9.33;;;;;;;18.23;54.27;100746.98;125079;1097;103189;-82
2021/06/15 05:59:46;;;;;;;16.33;9.53;;;;;;;18.31;54.69;100751.02;124911;1096;103150;-82
2021/06/15 06:02:14;;;;;;;14.00;9.08;;;;;;;18.43;53.92;100754.86;124970;1096;116853;-82
2021/06/15 06:10:01;;;;;;;14.13;8.95;;;;;;;18.84;53.48;100749.03;125158;1096;103827;-83
2021/06/15 06:12:30;;;;;;;19.03;10.13;;;;;;;18.98;53.32;100753.72;125169;1093;114763;-87
2021/06/15 06:15:13;;;;;;;13.83;9.28;;;;;;;19.03;52.57;100748.94;124370;1097;102925;-84
2021/06/15 06:17:41;;;;;;;13.63;8.63;;;;;;;19.10;52.42;100753.97;124682;1096;103543;-85
2021/06/15 06:20:14;;;;;;;11.70;8.45;;;;;;;19.17;52.38;100752.69;124994;1095;115634;-86
2021/06/15 06:22:42;;;;;;;11.75;8.43;;;;;;;19.26;52.12;100746.77;125044;1096;102981;-87
2021/06/15 06:25:13;;;;;;;14.93;8.47;;;;;;;19.34;52.10;100746.30;124995;1095;114495;-85
2021/06/15 06:27:55;;;;;;;18.10;9.10;;;;;;;19.45;52.16;100746.56;125087;1095;103241;-83
2021/06/15 06:30:36;;;;;;;10.95;8.30;;;;;;;19.57;51.83;100757.59;124758;1100;115163;-84
2021/06/15 06:33:06;;;;;;;12.65;8.60;;;;;;;19.62;50.41;100747.39;124774;1099;103179;-83
2021/06/15 06:35:48;;;;;;;15.13;8.20;;;;;;;19.63;50.73;100751.84;124415;1099;103185;-84
2021/06/15 06:38:16;;;;;;;14.17;8.10;;;;;;;19.64;50.90;100759.00;124474;1098;115600;-84
2021/06/15 06:40:43;;;;;;;10.60;8.00;;;;;;;19.69;51.36;100759.60;124845;1099;103179;-82
2021/06/15 06:43:10;;;;;;;11.50;8.30;;;;;;;19.73;50.55;100758.45;124779;1098;116228;-82
2021/06/15 06:45:38;;;;;;;14.75;9.05;;;;;;;19.84;50.44;100755.15;124729;1099;103057;-82
2021/06/15 06:48:08;;;;;;;13.03;8.83;;;;;;;19.92;49.63;100760.10;124611;1100;106162;-82
2021/06/15 06:50:36;;;;;;;13.83;8.18;;;;;;;19.96;49.48;100767.06;124524;1097;114705;-86
2021/06/15 06:53:03;;;;;;;11.40;8.35;;;;;;;20.00;49.32;100761.36;124963;1096;102932;-84
2021/06/15 06:55:33;;;;;;;12.90;8.90;;;;;;;20.07;49.93;100761.00;124973;1096;116784;-82
2021/06/15 06:58:01;;;;;;;13.95;8.63;;;;;;;20.14;48.70;100751.55;124979;1095;103287;-82
2021/06/15 07:00:42;;;;;;;13.23;8.38;;;;;;;20.22;48.96;100743.86;124851;1095;115086;-84
2021/06/15 07:03:09;;;;;;;15.17;8.57;;;;;;;20.29;48.80;100744.35;125110;1094;103286;-82
2021/06/15 07:05:58;;;;;;;12.73;7.80;;;;;;;20.40;48.52;100749.09;124828;1096;103110;-82
2021/06/15 07:08:26;;;;;;;11.35;7.23;;;;;;;20.51;47.98;100751.98;124874;1096;115874;-83
2021/06/15 07:10:53;;;;;;;11.20;7.37;;;;;;;20.60;48.08;100742.44;125167;1093;103166;-82
2021/06/15 07:13:21;;;;;;;17.27;8.37;;;;;;;20.73;48.24;100743.42;125289;1093;114768;-82
2021/06/15 07:15:49;;;;;;;15.37;8.70;;;;;;;20.84;46.81;100743.59;125388;1093;103597;-83
2021/06/15 07:18:17;;;;;;;12.20;8.00;;;;;;;20.97;46.41;100740.13;125197;1093;103177;-83
2021/06/15 07:20:44;;;;;;;12.03;8.10;;;;;;;21.01;47.15;100749.78;125036;1093;114761;-83
2021/06/15 07:23:12;;;;;;;11.80;8.05;;;;;;;21.10;45.69;100742.88;125419;1093;103076;-83
2021/06/15 07:25:41;;;;;;;14.97;8.67;;;;;;;21.23;47.15;100751.09;125330;1092;114713;-83
2021/06/15 07:28:08;;;;;;;10.33;7.03;;;;;;;21.34;45.57;100745.84;125266;1092;103039;-82
2021/06/15 07:30:35;;;;;;;12.33;6.97;;;;;;;21.48;44.72;100743.06;125041;1093;115189;-82
2021/06/15 07:33:13;;;;;;;12.50;7.80;;;;;;;21.52;44.36;100747.30;125481;1093;102997;-84
2021/06/15 07:35:55;;;;;;;12.07;7.27;;;;;;;21.60;45.88;100748.69;124818;1096;103189;-80
2021/06/15 07:38:36;;;;;;;12.53;8.07;;;;;;;21.70;45.34;100750.66;125005;1096;114807;-82
2021/06/15 07:41:17;;;;;;;11.00;7.20;;;;;;;21.77;43.83;100747.55;124824;1095;103605;-83
2021/06/15 07:43:45;;;;;;;9.10;7.10;;;;;;;21.80;44.00;100742.77;124680;1096;115985;-85
2021/06/15 07:46:17;;;;;;;11.33;7.75;;;;;;;21.86;44.81;100741.50;124604;1095;103252;-81
2021/06/15 07:48:44;;;;;;;9.17;8.20;;;;;;;21.97;44.67;100740.77;124680;1092;115145;-82
2021/06/15 07:51:13;;;;;;;12.23;7.78;;;;;;;22.11;44.17;100742.50;125453;1093;102982;-82
2021/06/15 07:53:40;;;;;;;14.60;8.03;;;;;;;22.25;43.66;100736.98;125325;1092;103009;-81
2021/06/15 07:56:13;;;;;;;10.23;7.75;;;;;;;22.38;43.49;100739.75;125262;1093;114753;-82
2021/06/15 07:58:41;;;;;;;12.98;8.38;;;;;;;22.42;42.42;100740.38;125505;1093;101967;-82
2021/06/15 08:01:09;;;;;;;11.85;8.50;;;;;;;22.44;43.44;100744.72;125245;1093;114698;-82
2021/06/15 08:03:36;;;;;;;13.33;7.93;;;;;;;22.48;43.32;100746.23;125647;1093;103081;-82
2021/06/15 08:06:04;;;;;;;11.15;7.30;;;;;;;22.53;42.46;100738.64;125297;1093;103026;-81
2021/06/15 08:08:31;;;;;;;12.17;6.73;;;;;;;22.59;42.39;100733.75;125182;1092;113170;-81
2021/06/15 08:11:00;;;;;;;16.20;8.03;;;;;;;22.66;42.23;100737.79;125353;1092;103242;-81
2021/06/15 08:13:27;;;;;;;11.48;8.05;;;;;;;22.78;42.22;100728.75;125434;1093;115380;-81
2021/06/15 08:15:56;;;;;;;16.90;7.10;;;;;;;22.93;40.88;100734.05;125208;1092;103019;-84
2021/06/15 08:18:24;;;;;;;9.98;6.83;;;;;;;22.92;39.58;100722.30;125415;1093;115319;-82
2021/06/15 08:20:53;;;;;;;12.23;6.57;;;;;;;22.89;38.39;100727.95;125362;1093;103007;-81
2021/06/15 08:23:22;;;;;;;12.87;7.23;;;;;;;22.94;40.91;100731.21;125199;1093;102995;-81
2021/06/15 08:25:50;;;;;;;10.25;6.70;;;;;;;23.05;40.73;100727.70;124704;1093;116220;-81
2021/06/15 08:28:18;;;;;;;10.75;6.15;;;;;;;23.15;40.06;100725.19;125020;1093;103103;-83
2021/06/15 08:30:46;;;;;;;11.10;7.60;;;;;;;23.12;39.08;100720.82;125131;1093;116792;-81
2021/06/15 08:33:13;;;;;;;7.10;6.00;;;;;;;23.15;40.26;100720.65;125446;1093;103054;-82
2021/06/15 08:35:54;;;;;;;14.67;6.70;;;;;;;23.19;38.65;100715.83;125268;1093;103111;-80
2021/06/15 08:38:22;;;;;;;7.87;5.97;;;;;;;23.20;39.85;100712.14;125070;1093;116358;-82
2021/06/15 08:40:52;;;;;;;9.60;7.38;;;;;;;23.25;40.17;100717.25;124898;1093;102918;-82
2021/06/15 08:43:20;;;;;;;10.93;7.20;;;;;;;23.31;39.70;100712.22;125816;1093;114525;-81
2021/06/15 08:45:49;;;;;;;13.57;7.23;;;;;;;23.57;39.52;100722.11;125128;1093;102997;-80
2021/06/15 08:48:17;;;;;;;7.30;6.20;;;;;;;23.64;38.13;100715.20;125179;1093;102997;-81
2021/06/15 08:50:58;;;;;;;7.53;6.27;;;;;;;23.68;38.92;100716.70;124705;1096;115413;-81
2021/06/15 08:53:25;;;;;;;9.05;6.45;;;;;;;23.84;38.28;100716.38;124926;1096;103164;-82
2021/06/15 08:56:19;;;;;;;7.07;6.07;;;;;;;24.06;38.22;100714.73;124323;1099;116393;-81
2021/06/15 08:59:16;;;;;;;7.73;6.27;;;;;;;24.36;37.92;100719.63;124382;1100;103122;-82
2021/06/15 09:01:45;;;;;;;9.27;5.97;;;;;;;24.52;36.24;100725.59;124257;1097;115196;-81
2021/06/15 09:04:12;;;;;;;12.05;6.05;;;;;;;24.60;35.22;100715.93;124478;1099;103169;-80
2021/06/15 09:06:40;;;;;;;7.13;6.00;;;;;;;24.65;34.64;100716.46;124308;1096;114714;-86
2021/06/15 09:09:21;;;;;;;5.78;4.88;;;;;;;24.82;34.34;100720.55;124377;1098;103908;-80
2021/06/15 09:11:51;;;;;;;8.13;4.97;;;;;;;24.96;34.71;100719.41;124323;1100;103026;-81
2021/06/15 09:14:37;;;;;;;7.23;4.23;;;;;;;25.14;34.36;100717.03;124119;1099;116278;-80
2021/06/15 09:17:28;;;;;;;8.97;5.00;;;;;;;25.38;34.04;100719.60;124628;1099;103361;-79
2021/06/15 09:20:15;;;;;;;11.05;6.00;;;;;;;25.52;34.05;100721.15;124131;1099;113844;-80
2021/06/15 09:22:43;;;;;;;9.33;4.80;;;;;;;25.59;34.11;100719.66;125398;1099;103179;-81
2021/06/15 09:25:15;;;;;;;8.00;4.83;;;;;;;25.72;33.99;100724.05;125023;1100;115102;-82
2021/06/15 09:27:58;;;;;;;9.40;5.75;;;;;;;25.88;32.89;100724.46;123973;1098;103665;-81
2021/06/15 09:30:28;;;;;;;8.68;6.05;;;;;;;26.11;33.07;100716.17;125368;1099;103197;-82
2021/06/15 09:32:56;;;;;;;7.83;5.70;;;;;;;26.86;32.01;100709.53;125480;1097;113451;-82
2021/06/15 09:35:43;;;;;;;7.97;5.50;;;;;;;27.28;31.56;100715.83;125975;1096;103033;-82
2021/06/15 09:38:11;;;;;;;7.00;5.10;;;;;;;27.96;29.71;100717.73;125357;1095;113874;-81
2021/06/15 09:40:40;;;;;;;7.00;5.53;;;;;;;28.41;29.48;100702.55;125369;1093;103120;-81
2021/06/15 09:43:12;;;;;;;8.67;5.10;;;;;;;29.14;29.54;100696.30;125877;1093;114154;-82
2021/06/15 09:45:41;;;;;;;7.20;4.50;;;;;;;29.74;27.86;100711.30;125592;1093;103057;-80
2021/06/15 09:48:26;;;;;;;8.50;5.13;;;;;;;30.04;26.56;100704.55;125341;1092;102952;-82
2021/06/15 09:51:09;;;;;;;5.00;3.80;;;;;;;30.23;26.68;100695.25;125150;1093;115060;-82
2021/06/15 09:53:39;;;;;;;7.87;4.30;;;;;;;30.61;26.69;100698.58;124967;1093;103017;-81
2021/06/15 09:56:08;;;;;;;6.20;4.55;;;;;;;30.88;25.47;100690.27;124869;1092;115615;-81
2021/06/15 09:58:45;;;;;;;5.70;4.90;;;;;;;31.09;25.05;100692.61;124901;1093;103137;-80
2021/06/15 10:01:33;;;;;;;5.40;4.53;;;;;;;31.23;25.62;100694.72;125613;1093;114156;-82
2021/06/15 10:04:20;;;;;;;9.08;4.70;;;;;;;31.70;24.92;100689.61;124846;1093;103010;-81
2021/06/15 10:06:56;;;;;;;7.15;5.15;;;;;;;31.95;24.60;100684.95;124550;1092;114810;-81
2021/06/15 10:09:32;;;;;;;9.43;6.03;;;;;;;32.51;23.92;100683.16;124552;1093;103066;-80
2021/06/15 10:12:13;;;;;;;8.35;4.73;;;;;;;32.88;24.70;100666.98;125570;1092;103964;-81
2021/06/15 10:14:40;;;;;;;5.90;4.23;;;;;;;33.27;22.79;100673.52;125176;1093;116201;-83
2021/06/15 10:17:08;;;;;;;5.77;5.17;;;;;;;33.59;23.04;100675.19;125280;1092;103142;-81
2021/06/15 10:19:35;;;;;;;9.93;5.80;;;;;;;34.02;23.06;100668.25;125031;1093;114758;-81
2021/06/15 10:22:03;;;;;;;6.83;5.13;;;;;;;34.14;23.19;100664.85;125017;1093;103373;-83
2021/06/15 10:24:32;;;;;;;8.78;6.00;;;;;;;34.23;22.21;100656.47;125247;1093;102985;-82
2021/06/15 10:27:07;;;;;;;8.87;7.43;;;;;;;34.42;22.19;100668.92;125229;1093;114188;-82
2021/06/15 10:29:37;;;;;;;7.50;4.77;;;;;;;34.40;20.55;100671.84;125055;1093;103252;-82
2021/06/15 10:32:16;;;;;;;7.70;5.13;;;;;;;34.61;21.63;100667.47;124643;1093;114966;-82
2021/06/15 10:35:13;;;;;;;6.83;5.23;;;;;;;35.08;21.54;100665.30;125411;1093;103172;-79
2021/06/15 10:37:43;;;;;;;5.53;4.80;;;;;;;34.79;20.62;100665.16;124766;1093;116149;-80
2021/06/15 10:40:13;;;;;;;10.50;6.70;;;;;;;34.87;21.71;100660.58;124810;1093;103471;-82
2021/06/15 10:42:42;;;;;;;8.90;6.40;;;;;;;34.89;21.99;100655.72;125239;1093;116702;-81
2021/06/15 10:45:12;;;;;;;8.97;4.80;;;;;;;34.44;21.28;100661.27;124505;1093;103026;-79
2021/06/15 10:47:41;;;;;;;4.87;3.67;;;;;;;34.31;21.13;100654.51;125059;1093;102983;-83
2021/06/15 10:50:10;;;;;;;5.87;4.37;;;;;;;34.10;22.53;100652.46;125126;1093;115313;-82
2021/06/15 10:53:01;;;;;;;5.87;4.50;;;;;;;34.48;20.37;100657.95;124784;1093;103705;-80
2021/06/15 10:55:50;;;;;;;7.45;4.80;;;;;;;34.94;20.31;100651.31;124499;1093;114397;-83
2021/06/15 10:58:44;;;;;;;6.08;4.15;;;;;;;35.56;20.22;100637.90;125130;1093;103074;-79
2021/06/15 11:01:15;;;;;;;7.30;4.10;;;;;;;35.45;19.63;100639.30;125086;1093;116662;-79
2021/06/15 11:03:46;;;;;;;13.55;4.70;;;;;;;34.80;21.19;100641.97;124927;1093;103492;-81
2021/06/15 11:06:14;;;;;;;7.93;5.03;;;;;;;34.21;20.95;100639.22;125124;1093;103020;-80
2021/06/15 11:08:41;;;;;;;5.63;3.87;;;;;;;33.50;21.71;100644.00;124780;1092;115740;-80
2021/06/15 11:11:18;;;;;;;7.00;4.30;;;;;;;32.80;21.88;100643.09;125094;1093;103166;-81
2021/06/15 11:13:50;;;;;;;7.37;4.83;;;;;;;32.02;22.50;100644.67;124918;1093;115737;-79
2021/06/15 11:16:46;;;;;;;8.68;5.23;;;;;;;31.45;23.47;100637.28;125125;1093;102862;-86
2021/06/15 11:19:14;;;;;;;8.93;6.35;;;;;;;31.13;24.73;100636.22;125023;1093;114739;-81
2021/06/15 11:21:44;;;;;;;11.93;6.25;;;;;;;30.96;24.62;100629.78;125273;1093;103167;-81
2021/06/15 11:24:41;;;;;;;13.30;5.65;;;;;;;30.69;25.57;100631.77;125074;1092;103095;-85
2021/06/15 11:27:26;;;;;;;7.63;4.90;;;;;;;30.33;25.95;100626.44;124763;1091;114626;-80
2021/06/15 11:29:55;;;;;;;10.08;5.78;;;;;;;29.92;25.72;100632.54;124392;1093;103049;-81
2021/06/15 11:32:27;;;;;;;7.95;6.08;;;;;;;29.59;27.00;100625.92;125012;1093;115162;-80
2021/06/15 11:37:29;;;;;;;11.15;6.33;;;;;;;29.06;27.74;100611.17;125056;1093;115005;-82
2021/06/15 11:40:16;;;;;;;12.23;5.70;;;;;;;29.03;27.86;100617.86;125189;1092;102989;-82
2021/06/15 11:43:19;;;;;;;8.13;6.03;;;;;;;28.89;28.08;100613.75;124946;1093;103153;-78